Time;durP1;ratioP1;P1;durP2;ratioP2;P2;SDS_P1;SDS_P2;PMS_P1;PMS_P2;Temp;Humidity;BMP_temperature;BMP_pressure;BME280_temperature;BME280_humidity;BME280_pressure;Samples;Min_cycle;Max_cycle;Signal;HPM_P1;HPM_P2
2022/03/13 00:02:26;;;;;;;17.48;9.10;;;11.60;79.80;;;;;;10474620;28;20036;-66
2022/03/13 00:07:28;;;;;;;17.80;9.85;;;11.30;79.70;;;;;;10478554;28;20162;-67
2022/03/13 00:12:30;;;;;;;17.67;9.18;;;11.60;79.90;;;;;;10489754;28;20035;-66
2022/03/13 00:17:31;;;;;;;15.68;9.32;;;11.50;79.80;;;;;;10489518;28;20266;-66
2022/03/13 00:22:34;;;;;;;18.73;10.10;;;11.50;79.80;;;;;;10470201;28;20171;-62
2022/03/13 00:27:35;;;;;;;17.92;9.25;;;11.50;79.80;;;;;;10482337;28;20016;-68
2022/03/13 00:32:36;;;;;;;17.20;9.93;;;11.50;79.80;;;;;;10485534;28;20021;-67
2022/03/13 00:37:37;;;;;;;17.58;9.38;;;11.50;79.80;;;;;;10488550;28;20458;-66
2022/03/13 00:42:38;;;;;;;18.63;9.38;;;11.40;79.80;;;;;;10488470;28;20639;-67
2022/03/13 00:47:38;;;;;;;17.70;9.60;;;11.40;79.80;;;;;;10484080;28;20029;-64
2022/03/13 00:52:39;;;;;;;16.17;8.70;;;11.30;79.80;;;;;;10482465;28;20545;-61
2022/03/13 00:57:43;;;;;;;16.08;8.50;;;11.40;79.80;;;;;;10473120;28;20485;-61
2022/03/13 01:02:44;;;;;;;14.98;8.98;;;11.40;79.80;;;;;;10483220;28;20044;-68
2022/03/13 01:07:44;;;;;;;15.90;9.75;;;11.40;79.80;;;;;;10476725;28;20035;-64
2022/03/13 01:12:47;;;;;;;17.67;9.40;;;11.30;79.90;;;;;;10479376;28;20025;-67
2022/03/13 01:17:48;;;;;;;16.13;9.05;;;11.30;79.90;;;;;;10486926;28;20035;-61
2022/03/13 01:22:49;;;;;;;17.08;9.23;;;11.40;80.00;;;;;;10483147;28;20048;-66
2022/03/13 01:27:50;;;;;;;17.55;9.65;;;11.30;79.90;;;;;;10486376;28;20044;-66
2022/03/13 01:32:54;;;;;;;17.60;8.77;;;11.30;79.90;;;;;;10473194;28;20440;-64
2022/03/13 01:37:54;;;;;;;17.80;8.73;;;11.30;80.00;;;;;;10486182;28;20455;-66
2022/03/13 01:42:55;;;;;;;16.67;9.25;;;11.30;80.00;;;;;;10486153;28;20041;-67
2022/03/13 01:47:56;;;;;;;17.58;9.23;;;11.30;80.00;;;;;;10482051;28;20424;-66
2022/03/13 01:52:57;;;;;;;18.00;8.55;;;11.30;80.00;;;;;;10479457;28;20052;-67
2022/03/13 01:57:57;;;;;;;14.77;8.73;;;11.20;80.00;;;;;;10451225;28;20028;-66
2022/03/13 02:02:58;;;;;;;16.05;8.73;;;11.20;80.00;;;;;;10479233;28;20033;-65
2022/03/13 02:08:00;;;;;;;15.80;8.40;;;11.20;80.10;;;;;;10478103;28;20033;-66
2022/03/13 02:13:01;;;;;;;15.48;9.05;;;11.20;80.10;;;;;;10480646;28;20662;-67
2022/03/13 02:18:03;;;;;;;15.05;8.55;;;11.20;80.10;;;;;;10461798;28;20032;-66
2022/03/13 02:23:24;;;;;;;16.27;9.10;;;11.20;80.20;;;;;;10478154;28;20029;-67
2022/03/13 02:28:27;;;;;;;16.25;9.05;;;11.20;80.30;;;;;;10479747;28;20114;-67
2022/03/13 02:33:28;;;;;;;17.15;8.82;;;11.20;80.20;;;;;;10474315;28;20035;-67
2022/03/13 02:38:30;;;;;;;15.65;9.15;;;11.20;80.20;;;;;;10474738;28;20029;-67
2022/03/13 02:43:31;;;;;;;17.50;9.25;;;11.10;80.20;;;;;;10478589;28;20073;-67
2022/03/13 02:48:31;;;;;;;16.98;9.02;;;11.10;80.80;;;;;;10473940;28;20025;-67
2022/03/13 02:53:32;;;;;;;15.35;8.93;;;11.10;80.20;;;;;;10473296;28;20028;-68
2022/03/13 02:58:33;;;;;;;16.80;10.00;;;11.10;80.20;;;;;;10462259;28;20059;-67
2022/03/13 03:03:34;;;;;;;17.38;9.75;;;11.10;80.20;;;;;;10481667;28;20114;-67
2022/03/13 03:08:37;;;;;;;16.27;9.05;;;11.10;80.10;;;;;;10487979;28;20159;-66
2022/03/13 03:13:38;;;;;;;15.98;8.93;;;11.00;80.00;;;;;;10487684;28;20077;-63
2022/03/13 03:18:39;;;;;;;18.25;9.80;;;11.00;80.00;;;;;;10462648;28;20028;-67
2022/03/13 03:23:40;;;;;;;18.05;10.15;;;11.00;80.00;;;;;;10474847;28;20371;-67
2022/03/13 03:28:41;;;;;;;16.15;9.13;;;11.00;79.90;;;;;;10473288;28;20017;-67
2022/03/13 03:33:42;;;;;;;16.10;9.45;;;11.00;79.90;;;;;;10479339;28;20036;-67
2022/03/13 03:38:43;;;;;;;19.52;9.00;;;11.00;79.80;;;;;;10489014;28;20032;-66
2022/03/13 03:43:44;;;;;;;14.95;8.55;;;11.00;79.80;;;;;;10481644;28;20079;-67
2022/03/13 03:48:46;;;;;;;17.55;9.35;;;11.00;79.90;;;;;;10485730;28;20048;-66
2022/03/13 03:53:47;;;;;;;17.55;8.98;;;11.00;79.90;;;;;;10484366;28;20032;-67
2022/03/13 03:58:48;;;;;;;16.90;9.27;;;10.90;79.90;;;;;;10483865;28;20029;-66
2022/03/13 04:03:50;;;;;;;17.90;9.40;;;10.90;79.90;;;;;;10483734;28;20040;-66
2022/03/13 04:08:51;;;;;;;16.83;8.73;;;10.90;80.00;;;;;;10476353;28;20033;-66
2022/03/13 04:13:51;;;;;;;18.67;9.45;;;10.90;79.90;;;;;;10488133;28;20371;-67
2022/03/13 04:18:54;;;;;;;17.65;9.35;;;10.80;79.90;;;;;;10483377;28;20033;-63
2022/03/13 04:23:55;;;;;;;18.63;9.88;;;10.90;79.80;;;;;;10482404;28;20033;-66
2022/03/13 04:28:55;;;;;;;17.10;9.77;;;10.90;79.70;;;;;;10484823;28;20029;-66
2022/03/13 04:33:56;;;;;;;16.38;9.13;;;10.80;79.70;;;;;;10482280;28;20094;-66
2022/03/13 04:38:57;;;;;;;27.77;9.43;;;10.90;79.80;;;;;;10483873;28;20965;-66
2022/03/13 04:43:57;;;;;;;16.70;8.60;;;10.80;79.80;;;;;;10483716;28;20235;-65
2022/03/13 04:48:58;;;;;;;18.90;9.73;;;10.80;79.80;;;;;;10478825;28;20368;-66
2022/03/13 04:53:59;;;;;;;17.05;8.98;;;10.70;79.60;;;;;;10482436;28;20482;-67
2022/03/13 04:59:00;;;;;;;15.77;8.45;;;10.80;79.60;;;;;;10483368;28;20028;-67
2022/03/13 05:04:01;;;;;;;17.08;9.20;;;10.80;79.60;;;;;;10482110;28;20127;-67
2022/03/13 05:09:02;;;;;;;19.83;9.85;;;10.70;79.50;;;;;;10487038;28;20032;-66
2022/03/13 05:14:03;;;;;;;17.10;8.98;;;10.70;79.50;;;;;;10483632;28;20530;-67
2022/03/13 05:19:06;;;;;;;16.98;9.25;;;10.70;79.40;;;;;;10477265;28;20502;-66
2022/03/13 05:24:07;;;;;;;18.02;9.18;;;10.70;79.40;;;;;;10477812;28;20041;-67
2022/03/13 05:29:09;;;;;;;16.80;9.00;;;10.70;79.30;;;;;;10478300;28;20026;-66
2022/03/13 05:34:10;;;;;;;17.23;9.20;;;10.70;79.20;;;;;;10470171;28;20034;-66
2022/03/13 05:39:11;;;;;;;15.18;8.77;;;10.70;79.10;;;;;;10475291;28;20032;-66
2022/03/13 05:44:12;;;;;;;16.48;8.32;;;10.60;78.90;;;;;;10471756;28;20493;-67
2022/03/13 05:49:13;;;;;;;15.57;8.93;;;10.70;78.90;;;;;;10485842;28;20080;-66
2022/03/13 05:54:15;;;;;;;16.48;8.45;;;10.70;78.90;;;;;;10477441;28;20341;-68
2022/03/13 05:59:16;;;;;;;15.88;8.73;;;10.70;78.90;;;;;;10467168;28;21667;-67
2022/03/13 06:04:17;;;;;;;19.48;9.18;;;10.60;78.80;;;;;;10480835;28;20041;-68
2022/03/13 06:09:17;;;;;;;17.63;8.65;;;10.70;78.80;;;;;;10476255;28;20086;-67
2022/03/13 06:14:19;;;;;;;18.05;9.77;;;10.70;78.80;;;;;;10453393;28;20025;-65
2022/03/13 06:19:20;;;;;;;14.38;8.70;;;10.60;78.70;;;;;;10467434;28;20107;-66
2022/03/13 06:24:21;;;;;;;15.25;8.05;;;10.60;79.30;;;;;;10480008;28;20037;-66
2022/03/13 06:29:22;;;;;;;15.50;7.97;;;10.70;78.60;;;;;;10474777;28;20024;-66
2022/03/13 06:34:23;;;;;;;16.88;8.80;;;10.60;78.40;;;;;;10473722;28;20029;-66
2022/03/13 06:39:24;;;;;;;14.80;8.20;;;10.60;78.40;;;;;;10466833;28;20085;-67
2022/03/13 06:44:25;;;;;;;15.88;8.45;;;10.60;78.30;;;;;;10464814;28;20041;-67
2022/03/13 06:49:26;;;;;;;16.27;8.73;;;10.60;78.10;;;;;;10479466;28;20036;-67
2022/03/13 06:54:26;;;;;;;15.35;8.43;;;10.60;78.10;;;;;;10475225;28;20471;-62
2022/03/13 06:59:27;;;;;;;17.63;9.68;;;10.60;77.90;;;;;;10474377;28;20036;-67
2022/03/13 07:04:28;;;;;;;16.55;9.05;;;10.60;77.80;;;;;;10478131;28;20040;-67
2022/03/13 07:09:28;;;;;;;16.70;9.45;;;10.50;77.60;;;;;;10484522;28;20029;-67
2022/03/13 07:14:29;;;;;;;14.88;8.30;;;10.50;77.50;;;;;;10475228;28;20047;-67
2022/03/13 07:19:34;;;;;;;15.13;8.77;;;10.50;77.50;;;;;;10479227;28;20035;-67
2022/03/13 07:24:34;;;;;;;15.77;8.20;;;10.50;77.50;;;;;;10480132;28;20187;-67
2022/03/13 07:29:36;;;;;;;15.45;8.55;;;10.50;77.40;;;;;;10477188;28;20062;-66
2022/03/13 07:34:37;;;;;;;14.57;8.80;;;10.50;77.30;;;;;;10473811;28;20036;-67
2022/03/13 07:39:41;;;;;;;16.40;9.05;;;10.50;77.10;;;;;;10468219;28;20539;-67
2022/03/13 07:44:42;;;;;;;16.42;9.05;;;10.50;77.10;;;;;;10470065;28;20202;-66
2022/03/13 07:49:43;;;;;;;14.50;8.75;;;10.50;77.00;;;;;;10481997;28;20040;-65
2022/03/13 07:54:44;;;;;;;15.27;8.10;;;10.50;76.90;;;;;;10480027;28;20027;-66
2022/03/13 07:59:47;;;;;;;15.88;8.57;;;10.50;76.80;;;;;;10474773;28;20044;-67
2022/03/13 08:04:48;;;;;;;16.50;8.70;;;10.50;76.60;;;;;;10470485;28;20374;-67
2022/03/13 08:09:49;;;;;;;16.88;8.50;;;10.50;76.50;;;;;;10489930;28;20032;-67
2022/03/13 08:14:52;;;;;;;14.23;8.07;;;10.60;76.70;;;;;;10481616;28;20086;-66
2022/03/13 08:19:56;;;;;;;16.52;8.93;;;10.50;76.50;;;;;;10479121;28;20090;-68
2022/03/13 08:24:57;;;;;;;15.90;8.90;;;10.50;76.40;;;;;;10483738;28;20052;-67
2022/03/13 08:29:58;;;;;;;16.52;9.07;;;10.60;75.90;;;;;;10480351;28;20064;-68
2022/03/13 08:34:59;;;;;;;18.25;8.80;;;10.70;75.30;;;;;;10474905;28;20417;-67
2022/03/13 08:40:00;;;;;;;17.08;8.82;;;10.80;75.10;;;;;;10468145;28;20040;-67
2022/03/13 08:45:02;;;;;;;15.40;8.73;;;10.80;74.90;;;;;;10481164;28;20076;-65
2022/03/13 08:50:03;;;;;;;16.90;8.85;;;10.80;75.10;;;;;;10473855;28;20121;-69
2022/03/13 08:55:05;;;;;;;14.65;7.95;;;10.80;75.10;;;;;;10481403;28;20040;-67
2022/03/13 09:00:10;;;;;;;18.45;9.23;;;10.80;74.60;;;;;;10487506;28;20049;-67
2022/03/13 09:05:11;;;;;;;17.13;8.93;;;10.90;74.00;;;;;;10484574;28;20053;-66
2022/03/13 09:10:12;;;;;;;18.95;8.93;;;10.90;73.40;;;;;;10481949;28;20563;-67
2022/03/13 09:15:13;;;;;;;15.52;8.45;;;10.90;73.10;;;;;;10474955;28;20021;-68
2022/03/13 09:20:14;;;;;;;16.35;9.23;;;11.00;72.90;;;;;;10461187;28;20044;-66
2022/03/13 09:25:15;;;;;;;17.75;9.13;;;11.10;72.60;;;;;;10481167;28;20070;-66
2022/03/13 09:30:16;;;;;;;17.52;9.25;;;11.20;72.30;;;;;;10483423;28;20371;-67
2022/03/13 09:35:17;;;;;;;17.50;8.85;;;11.20;72.00;;;;;;10486476;28;20020;-66
2022/03/13 09:40:19;;;;;;;15.85;9.35;;;11.30;71.70;;;;;;10459731;28;20044;-67
2022/03/13 09:45:19;;;;;;;18.15;9.07;;;11.40;71.40;;;;;;10473814;28;20040;-66
2022/03/13 09:50:22;;;;;;;18.73;9.48;;;11.50;71.20;;;;;;10480403;28;20029;-65
2022/03/13 09:55:22;;;;;;;24.27;10.30;;;11.50;70.80;;;;;;10485885;28;20033;-63
2022/03/13 10:00:25;;;;;;;18.38;10.27;;;11.60;70.60;;;;;;10462253;28;20048;-69
2022/03/13 10:05:28;;;;;;;18.73;10.23;;;11.70;70.00;;;;;;10477045;28;20025;-63
2022/03/13 10:10:31;;;;;;;19.23;9.90;;;11.80;69.70;;;;;;10469842;28;20083;-66
2022/03/13 10:15:43;;;;;;;17.65;9.38;;;11.90;69.00;;;;;;10479576;28;20024;-63
2022/03/13 10:20:46;;;;;;;20.15;9.98;;;12.00;68.60;;;;;;10480602;28;20403;-65
2022/03/13 10:25:52;;;;;;;18.23;10.13;;;12.10;68.70;;;;;;10483805;28;20482;-67
2022/03/13 10:30:59;;;;;;;18.38;9.63;;;12.20;68.40;;;;;;10474657;28;20076;-65
2022/03/13 10:36:17;;;;;;;18.50;9.77;;;12.30;68.60;;;;;;10481653;28;20025;-64
2022/03/13 10:41:20;;;;;;;19.20;10.37;;;12.50;68.30;;;;;;10450748;28;20079;-64
2022/03/13 10:46:31;;;;;;;18.95;10.00;;;12.60;68.40;;;;;;10475672;28;20110;-66
2022/03/13 10:51:36;;;;;;;20.30;10.55;;;12.70;67.70;;;;;;10479686;28;20073;-69
2022/03/13 10:56:37;;;;;;;21.00;10.98;;;12.80;67.80;;;;;;10484877;28;20025;-65
2022/03/13 11:01:38;;;;;;;17.75;9.27;;;12.80;67.90;;;;;;10479559;28;20483;-69
2022/03/13 11:06:39;;;;;;;21.10;10.30;;;12.80;67.70;;;;;;10471194;28;20032;-71
2022/03/13 11:11:40;;;;;;;19.55;10.45;;;12.90;68.10;;;;;;10476088;28;20732;-65
2022/03/13 11:16:41;;;;;;;19.13;10.05;;;13.10;68.20;;;;;;10487623;28;20414;-65
2022/03/13 11:21:43;;;;;;;17.17;9.90;;;13.30;67.90;;;;;;10478496;28;20025;-69
2022/03/13 11:26:45;;;;;;;18.70;10.32;;;13.40;67.10;;;;;;10492104;28;20028;-65
2022/03/13 11:31:47;;;;;;;17.55;10.20;;;13.40;66.50;;;;;;10474993;28;20166;-66
2022/03/13 11:36:49;;;;;;;19.52;10.80;;;13.40;66.40;;;;;;10483733;28;20441;-65
2022/03/13 11:41:50;;;;;;;19.60;10.52;;;13.50;66.40;;;;;;10482894;28;20194;-65
2022/03/13 11:46:57;;;;;;;20.58;10.38;;;13.60;66.30;;;;;;10480802;28;20205;-65
2022/03/13 11:52:09;;;;;;;18.13;10.00;;;13.60;66.20;;;;;;10478345;28;20068;-67
2022/03/13 11:57:21;;;;;;;20.48;10.90;;;13.60;66.00;;;;;;10491203;28;20073;-67
2022/03/13 12:02:40;;;;;;;18.63;9.70;;;13.70;66.20;;;;;;10484574;28;20624;-68
2022/03/13 12:07:56;;;;;;;20.02;10.73;;;13.80;65.50;;;;;;10471870;28;20428;-66
2022/03/13 12:13:06;;;;;;;20.30;10.40;;;14.10;65.40;;;;;;10479390;28;20044;-69
2022/03/13 12:18:23;;;;;;;19.40;10.02;;;14.30;64.90;;;;;;10474359;28;20040;-63
2022/03/13 12:23:31;;;;;;;21.35;10.60;;;14.30;64.40;;;;;;10472639;28;20068;-63
2022/03/13 12:28:33;;;;;;;18.02;9.98;;;14.50;65.00;;;;;;10478561;28;20105;-65
2022/03/13 12:33:37;;;;;;;18.42;10.48;;;14.60;64.60;;;;;;10480425;28;20033;-64
2022/03/13 12:38:43;;;;;;;21.58;10.13;;;14.70;64.90;;;;;;10479238;28;20033;-65
2022/03/13 12:44:02;;;;;;;22.13;11.00;;;14.80;64.60;;;;;;10488287;28;20048;-67
2022/03/13 12:49:06;;;;;;;20.25;10.20;;;14.90;64.00;;;;;;10482084;28;20020;-67
2022/03/13 12:54:15;;;;;;;18.85;8.93;;;14.90;64.40;;;;;;10470209;28;20028;-65
2022/03/13 12:59:33;;;;;;;22.27;9.85;;;15.00;63.80;;;;;;10463679;28;20044;-66
2022/03/13 13:04:35;;;;;;;18.15;9.80;;;15.00;63.70;;;;;;10469687;28;20414;-65
2022/03/13 13:09:37;;;;;;;18.92;9.82;;;15.00;64.20;;;;;;10478516;28;20025;-68
2022/03/13 13:14:39;;;;;;;18.13;9.68;;;15.10;64.30;;;;;;10485286;28;20036;-67
2022/03/13 13:19:46;;;;;;;17.23;9.80;;;15.10;64.10;;;;;;10483397;28;20119;-70
2022/03/13 13:24:51;;;;;;;18.88;9.77;;;15.20;64.30;;;;;;10479589;28;20063;-64
2022/03/13 13:29:52;;;;;;;16.60;9.60;;;15.20;63.70;;;;;;10477449;28;20025;-64
2022/03/13 13:35:08;;;;;;;21.98;9.40;;;15.30;63.70;;;;;;10480727;28;20481;-65
2022/03/13 13:40:11;;;;;;;17.48;9.35;;;15.30;62.90;;;;;;10486215;28;20482;-65
2022/03/13 13:45:21;;;;;;;17.08;9.20;;;15.40;63.40;;;;;;10482002;28;20059;-67
2022/03/13 13:50:24;;;;;;;16.95;8.70;;;15.50;62.50;;;;;;10477944;28;20395;-66
2022/03/13 13:55:26;;;;;;;14.25;8.23;;;15.50;62.80;;;;;;10485995;28;20036;-67
2022/03/13 14:00:28;;;;;;;16.30;8.70;;;15.60;62.70;;;;;;10473802;28;20037;-63
2022/03/13 14:05:29;;;;;;;15.73;8.18;;;15.80;62.40;;;;;;10473853;28;20252;-66
2022/03/13 14:10:29;;;;;;;15.38;8.73;;;16.00;62.30;;;;;;10471008;28;20032;-65
2022/03/13 14:15:33;;;;;;;16.27;8.45;;;16.20;61.90;;;;;;10473381;28;20035;-64
2022/03/13 14:20:33;;;;;;;15.35;8.48;;;16.30;61.20;;;;;;10479438;28;20036;-66
2022/03/13 14:25:34;;;;;;;16.05;8.65;;;16.50;61.00;;;;;;10480496;28;20029;-64
2022/03/13 14:30:35;;;;;;;17.00;9.15;;;16.50;60.80;;;;;;10475820;28;20073;-65
2022/03/13 14:35:35;;;;;;;15.18;8.13;;;16.60;60.50;;;;;;10472095;28;20021;-64
2022/03/13 14:40:36;;;;;;;15.82;9.25;;;16.60;60.30;;;;;;10474888;28;20032;-64
2022/03/13 14:45:38;;;;;;;14.00;8.20;;;16.60;60.20;;;;;;10470867;28;20036;-64
2022/03/13 14:50:39;;;;;;;20.85;8.25;;;16.70;60.30;;;;;;10470487;28;20375;-61
2022/03/13 14:55:40;;;;;;;14.02;7.90;;;16.60;60.30;;;;;;10470332;28;20040;-64
2022/03/13 15:00:41;;;;;;;12.52;7.28;;;16.70;60.60;;;;;;10454271;28;20543;-66
2022/03/13 15:05:42;;;;;;;14.48;8.27;;;16.70;60.60;;;;;;10482805;28;20051;-64
2022/03/13 15:10:43;;;;;;;18.38;8.38;;;16.70;60.20;;;;;;10476408;28;20079;-66
2022/03/13 15:15:44;;;;;;;13.48;8.10;;;16.60;60.30;;;;;;10479106;28;20028;-65
2022/03/13 15:20:45;;;;;;;14.70;8.05;;;16.50;60.40;;;;;;10481959;28;20063;-65
2022/03/13 15:25:48;;;;;;;12.57;7.57;;;16.40;60.40;;;;;;10478605;28;20078;-64
2022/03/13 15:30:49;;;;;;;13.15;7.82;;;16.30;60.60;;;;;;10480556;28;20024;-66
2022/03/13 15:35:50;;;;;;;14.63;8.32;;;16.20;61.00;;;;;;10469782;28;20034;-65
2022/03/13 15:40:51;;;;;;;14.45;7.65;;;16.00;61.40;;;;;;10476638;28;20116;-65
2022/03/13 15:45:52;;;;;;;15.50;8.88;;;15.80;61.80;;;;;;10472831;28;20049;-66
2022/03/13 15:50:53;;;;;;;15.32;8.82;;;15.80;62.10;;;;;;10485838;28;20028;-66
2022/03/13 15:55:54;;;;;;;15.18;9.38;;;15.70;62.20;;;;;;10490849;28;20020;-65
2022/03/13 16:00:55;;;;;;;17.65;9.25;;;15.60;62.30;;;;;;10484949;28;20055;-66
2022/03/13 16:05:56;;;;;;;14.60;8.45;;;15.60;62.80;;;;;;10474864;28;20029;-67
2022/03/13 16:10:57;;;;;;;18.05;8.63;;;15.40;62.60;;;;;;10474013;28;20040;-65
2022/03/13 16:15:58;;;;;;;16.38;9.23;;;15.30;62.50;;;;;;10490030;28;20028;-66
2022/03/13 16:21:00;;;;;;;17.77;9.55;;;15.20;62.70;;;;;;10472952;28;20061;-66
2022/03/13 16:26:00;;;;;;;14.93;8.25;;;15.10;62.90;;;;;;10476965;28;20102;-65
2022/03/13 16:31:01;;;;;;;18.05;8.85;;;15.00;63.10;;;;;;10487045;28;20037;-65
2022/03/13 16:36:02;;;;;;;23.40;10.27;;;15.00;62.90;;;;;;10488943;28;20510;-63
2022/03/13 16:41:03;;;;;;;15.73;9.18;;;15.00;62.90;;;;;;10478146;28;20102;-64
2022/03/13 16:46:04;;;;;;;16.25;9.98;;;15.00;63.10;;;;;;10475712;28;20810;-66
2022/03/13 16:51:05;;;;;;;16.02;9.13;;;14.90;63.20;;;;;;10483471;28;20032;-63
2022/03/13 16:56:06;;;;;;;20.23;10.35;;;14.80;63.10;;;;;;10487965;28;20507;-62
2022/03/13 17:01:06;;;;;;;18.13;10.40;;;14.70;63.30;;;;;;10483286;28;20384;-67
2022/03/13 17:06:09;;;;;;;18.95;9.70;;;14.70;63.40;;;;;;10466548;28;20437;-63
2022/03/13 17:11:10;;;;;;;17.52;9.30;;;14.60;63.60;;;;;;10479851;28;20063;-65
2022/03/13 17:16:11;;;;;;;19.02;10.75;;;14.40;63.70;;;;;;10487201;28;20128;-65
2022/03/13 17:21:12;;;;;;;17.83;9.50;;;14.30;64.20;;;;;;10474667;28;20044;-61
2022/03/13 17:26:13;;;;;;;15.65;8.88;;;14.10;64.90;;;;;;10487219;28;20028;-64
2022/03/13 17:31:14;;;;;;;17.45;9.55;;;14.20;65.30;;;;;;10470765;28;20150;-63
2022/03/13 17:36:15;;;;;;;18.63;9.98;;;14.30;65.30;;;;;;10478708;28;20048;-63
2022/03/13 17:41:15;;;;;;;16.42;9.15;;;14.40;65.50;;;;;;10487043;28;20036;-63
2022/03/13 17:46:16;;;;;;;14.95;8.93;;;14.40;65.60;;;;;;10465984;28;20053;-64
2022/03/13 17:51:20;;;;;;;19.70;9.77;;;14.40;65.80;;;;;;10470908;28;20051;-64
2022/03/13 17:56:20;;;;;;;19.02;10.38;;;14.30;66.00;;;;;;10478318;28;20454;-68
2022/03/13 18:01:21;;;;;;;20.60;10.50;;;14.10;66.20;;;;;;10477078;28;20032;-64
2022/03/13 18:06:23;;;;;;;16.08;9.13;;;13.90;66.60;;;;;;10451293;28;20031;-63
2022/03/13 18:11:24;;;;;;;19.20;10.05;;;14.00;66.90;;;;;;10474426;28;20037;-65
2022/03/13 18:16:25;;;;;;;18.48;9.65;;;14.00;66.90;;;;;;10472011;28;20016;-65
2022/03/13 18:21:26;;;;;;;15.50;8.63;;;14.10;67.10;;;;;;10468946;28;20118;-65
2022/03/13 18:26:27;;;;;;;16.92;9.63;;;14.10;67.20;;;;;;10463180;28;20112;-65
2022/03/13 18:31:27;;;;;;;20.58;9.55;;;14.10;67.30;;;;;;10478464;28;20028;-65
2022/03/13 18:36:30;;;;;;;16.58;9.27;;;14.10;67.50;;;;;;10466185;28;20029;-65
2022/03/13 18:41:31;;;;;;;15.77;8.93;;;14.10;67.60;;;;;;10458394;28;20044;-65
2022/03/13 18:46:33;;;;;;;14.40;8.82;;;14.10;67.80;;;;;;10465400;28;20093;-65
2022/03/13 18:51:37;;;;;;;15.15;8.25;;;14.10;67.90;;;;;;10469516;28;20032;-65
2022/03/13 18:56:38;;;;;;;14.32;9.20;;;14.10;68.00;;;;;;10472163;28;20311;-65
2022/03/13 19:01:40;;;;;;;14.85;8.88;;;14.00;68.10;;;;;;10455053;28;20040;-64
2022/03/13 19:06:41;;;;;;;17.75;9.25;;;14.00;68.30;;;;;;10451902;28;20036;-66
2022/03/13 19:11:42;;;;;;;16.83;8.93;;;14.00;68.40;;;;;;10469377;28;20025;-64
2022/03/13 19:16:44;;;;;;;15.38;8.88;;;14.00;68.50;;;;;;10480911;28;20036;-65
2022/03/13 19:21:45;;;;;;;13.68;8.48;;;14.00;68.60;;;;;;10469857;28;20149;-65
2022/03/13 19:26:46;;;;;;;17.38;9.10;;;13.90;68.70;;;;;;10479777;28;20021;-65
2022/03/13 19:31:47;;;;;;;15.98;9.15;;;13.90;68.80;;;;;;10462929;28;20379;-64
2022/03/13 19:36:48;;;;;;;14.73;8.82;;;13.90;68.80;;;;;;10438348;28;20025;-64
2022/03/13 19:41:49;;;;;;;14.23;8.35;;;13.80;68.90;;;;;;10463021;28;20390;-65
2022/03/13 19:46:50;;;;;;;13.88;7.95;;;13.80;69.00;;;;;;10431350;28;20041;-63
2022/03/13 19:51:50;;;;;;;15.90;8.98;;;13.80;69.00;;;;;;10430353;28;20529;-65
2022/03/13 19:56:51;;;;;;;14.57;8.57;;;13.80;69.10;;;;;;10432327;28;20128;-64
2022/03/13 20:01:52;;;;;;;16.08;9.18;;;13.80;69.50;;;;;;10437747;28;20036;-64
2022/03/13 20:06:53;;;;;;;13.77;8.63;;;13.40;69.00;;;;;;10444133;28;20039;-65
2022/03/13 20:11:54;;;;;;;16.00;8.25;;;13.70;69.30;;;;;;10443889;28;20120;-65
2022/03/13 20:16:55;;;;;;;15.85;8.95;;;13.70;69.30;;;;;;10445223;28;20116;-65
2022/03/13 20:21:56;;;;;;;17.13;9.68;;;13.70;69.40;;;;;;10425672;28;20032;-65
2022/03/13 20:26:58;;;;;;;13.98;8.73;;;13.70;69.50;;;;;;10441837;28;20112;-64
2022/03/13 20:31:59;;;;;;;15.88;8.50;;;13.60;69.50;;;;;;10441661;28;20037;-65
2022/03/13 20:37:00;;;;;;;16.85;9.38;;;13.60;69.70;;;;;;10438541;28;20028;-65
2022/03/13 20:42:01;;;;;;;16.08;9.10;;;13.60;69.80;;;;;;10434831;28;20029;-63
2022/03/13 20:47:02;;;;;;;15.27;8.85;;;13.60;70.00;;;;;;10462597;28;20057;-65
2022/03/13 20:52:03;;;;;;;14.95;8.77;;;13.60;69.80;;;;;;10475145;28;20514;-64
2022/03/13 20:57:04;;;;;;;16.85;9.45;;;13.50;69.60;;;;;;10481918;28;20402;-65
2022/03/13 21:02:05;;;;;;;16.35;9.57;;;13.50;69.60;;;;;;10475851;28;20051;-66
2022/03/13 21:07:05;;;;;;;18.30;9.68;;;13.40;69.50;;;;;;10477743;28;20028;-63
2022/03/13 21:12:09;;;;;;;15.48;9.50;;;13.40;69.30;;;;;;10476579;28;20048;-65
2022/03/13 21:17:10;;;;;;;19.67;10.30;;;13.40;69.10;;;;;;10479388;28;20024;-63
2022/03/13 21:22:11;;;;;;;18.98;9.25;;;13.30;68.80;;;;;;10474355;28;20481;-64
2022/03/13 21:27:11;;;;;;;16.73;9.55;;;13.30;68.70;;;;;;10461757;28;20040;-60
2022/03/13 21:32:13;;;;;;;16.73;9.45;;;13.30;68.40;;;;;;10476912;28;20032;-65
2022/03/13 21:37:14;;;;;;;20.38;9.82;;;13.30;68.30;;;;;;10481513;28;20033;-63
2022/03/13 21:42:15;;;;;;;17.52;9.95;;;13.30;68.10;;;;;;10475083;28;20036;-63
2022/03/13 21:47:16;;;;;;;19.42;10.43;;;13.20;67.80;;;;;;10481422;28;20049;-65
2022/03/13 21:52:17;;;;;;;19.13;10.32;;;13.20;67.60;;;;;;10480520;28;20028;-64
2022/03/13 21:57:18;;;;;;;17.85;10.02;;;13.20;67.50;;;;;;10476707;28;20017;-64
2022/03/13 22:02:18;;;;;;;16.90;9.55;;;13.20;67.50;;;;;;10482742;28;20490;-64
2022/03/13 22:07:20;;;;;;;15.68;9.43;;;13.20;67.40;;;;;;10476755;28;20070;-63
2022/03/13 22:12:29;;;;;;;18.33;10.43;;;13.10;67.30;;;;;;10461469;28;20047;-64
2022/03/13 22:17:34;;;;;;;20.15;10.93;;;13.10;67.40;;;;;;10471861;28;20059;-64
2022/03/13 22:22:35;;;;;;;18.42;9.73;;;13.10;67.30;;;;;;10483405;28;20033;-64
2022/03/13 22:27:36;;;;;;;16.23;9.82;;;13.20;67.40;;;;;;10471798;28;20024;-64
2022/03/13 22:32:36;;;;;;;16.08;9.75;;;13.10;67.40;;;;;;10484593;28;20060;-62
2022/03/13 22:37:37;;;;;;;19.13;9.88;;;13.10;67.50;;;;;;10483987;28;20023;-63
2022/03/13 22:42:38;;;;;;;20.55;10.55;;;13.10;67.50;;;;;;10484683;28;20032;-62
2022/03/13 22:47:40;;;;;;;16.73;9.45;;;13.10;67.50;;;;;;10474235;28;20591;-63
2022/03/13 22:52:44;;;;;;;18.73;10.13;;;13.00;67.60;;;;;;10475124;28;20079;-64
2022/03/13 22:57:46;;;;;;;15.63;8.82;;;13.00;67.60;;;;;;10483954;28;20116;-61
2022/03/13 23:02:47;;;;;;;14.00;8.57;;;13.00;67.70;;;;;;10480818;28;20055;-62
2022/03/13 23:07:48;;;;;;;16.50;8.93;;;13.00;67.80;;;;;;10477887;28;20023;-64
2022/03/13 23:12:48;;;;;;;14.75;8.52;;;12.90;67.80;;;;;;10483271;28;20082;-62
2022/03/13 23:17:49;;;;;;;17.48;9.10;;;13.00;68.00;;;;;;10484436;28;20037;-64
2022/03/13 23:22:51;;;;;;;16.80;8.73;;;13.00;68.10;;;;;;10490448;28;20048;-64
2022/03/13 23:27:51;;;;;;;15.75;8.10;;;12.90;68.10;;;;;;10462452;28;20098;-63
2022/03/13 23:32:55;;;;;;;14.55;7.78;;;12.90;68.30;;;;;;10491658;28;20086;-64
2022/03/13 23:37:59;;;;;;;13.90;7.60;;;12.90;68.50;;;;;;10490867;28;20449;-64
2022/03/13 23:43:00;;;;;;;11.07;6.93;;;12.90;68.60;;;;;;10490527;28;20049;-63
2022/03/13 23:48:01;;;;;;;11.50;6.38;;;12.90;68.70;;;;;;10484375;28;20036;-63
2022/03/13 23:53:02;;;;;;;12.05;6.30;;;12.90;68.90;;;;;;10488730;28;20033;-63
2022/03/13 23:58:03;;;;;;;11.32;6.45;;;12.90;69.10;;;;;;10493213;28;20023;-65
